»·PEaware :: N105MZ KTUS-KPHX

N105MZ :: KTUS-KPHX

FLIGHT INFORMATION

Flight Status: Arrived
Operator: Privately registered:
United States
More flights under this callsign
Pilot: Murad K. (44175)
Aircraft: CIRRUS SR-22
(SR22)
More flights by this aircraft type
Origin: KTUS Tucson Intl
United States
Destination: KPHX Phoenix Sky Harbor Intl
United States
More flights between these airports :: More routes between these airports
Route:
File this flight plan on PilotEdge
Remarks:
Altitude:
(Current/Filed)
6,500ft
Speed:
(Current/Filed)
0kts
Departed: 16-Jul-23 06:10 PM
Arrived: 16-Jul-23 06:58 PM
Distance/Time
Traveled:
96nm/0:48
Distance/Time
To Go:
Arrived

Flight Plot

Page will automatically refresh every two minutes.

Flight plan parsing failed; only flown route is shown


Map Options




Map Legend


Flown Route
Filed Route
Departure Airport
Arrival Airport
Navaid (VOR, NDB)
Fix

Horizontal Profiles

Position Reports

Time Latitude Longitude Heading Altitude Ground
Speed
16-Jul-23 17:48 32.125328 -110.945467 224 2570ft 0kts
16-Jul-23 17:49 32.125328 -110.945467 224 2570ft 0kts
16-Jul-23 17:50 32.125328 -110.945467 224 2570ft 0kts
16-Jul-23 17:51 32.125328 -110.945467 224 2570ft 0kts
16-Jul-23 17:52 32.125328 -110.945467 224 2570ft 0kts
16-Jul-23 17:53 32.125328 -110.945467 224 2570ft 0kts
16-Jul-23 17:54 32.125328 -110.945467 224 2570ft 0kts
16-Jul-23 17:55 32.125556 -110.945556 27 2570ft 2kts
16-Jul-23 17:56 32.125600 -110.946687 227 2568ft 14kts
16-Jul-23 17:57 32.123127 -110.945200 133 2574ft 12kts
16-Jul-23 17:58 32.120501 -110.942101 134 2589ft 18kts
16-Jul-23 17:59 32.117914 -110.939030 131 2593ft 16kts
16-Jul-23 18:00 32.114796 -110.935392 136 2607ft 11kts
16-Jul-23 18:01 32.111703 -110.931775 134 2616ft 15kts
16-Jul-23 18:02 32.108090 -110.927530 135 2629ft 19kts
16-Jul-23 18:03 32.105105 -110.924019 134 2639ft 15kts
16-Jul-23 18:04 32.102875 -110.922018 198 2644ft 1kts
16-Jul-23 18:05 32.102750 -110.922115 224 2644ft 0kts
16-Jul-23 18:06 32.102750 -110.922115 224 2644ft 0kts
16-Jul-23 18:07 32.102750 -110.922115 224 2644ft 0kts
16-Jul-23 18:08 32.103996 -110.925240 313 2641ft 38kts
16-Jul-23 18:09 32.120301 -110.945286 317 3135ft 106kts
16-Jul-23 18:10 32.142076 -110.974312 316 3709ft 126kts
16-Jul-23 18:11 32.165665 -111.002868 324 4053ft 118kts
16-Jul-23 18:12 32.195827 -111.016081 333 4947ft 109kts
16-Jul-23 18:13 32.223669 -111.025651 321 5852ft 108kts
16-Jul-23 18:14 32.248838 -111.046731 321 6451ft 126kts
16-Jul-23 18:15 32.282010 -111.075098 321 6450ft 158kts
16-Jul-23 18:16 32.318417 -111.106696 321 6432ft 165kts
16-Jul-23 18:17 32.346296 -111.149337 303 6453ft 165kts
16-Jul-23 18:18 32.374656 -111.192883 316 6454ft 169kts
16-Jul-23 18:19 32.411320 -111.228764 318 6452ft 171kts
16-Jul-23 18:20 32.448027 -111.264675 318 6449ft 171kts
16-Jul-23 18:21 32.484550 -111.300482 317 6460ft 170kts
16-Jul-23 18:22 32.518472 -111.338788 305 6456ft 167kts
16-Jul-23 18:23 32.547189 -111.382868 305 6456ft 170kts
16-Jul-23 18:24 32.576160 -111.427522 305 6452ft 171kts
16-Jul-23 18:25 32.605418 -111.472730 304 6432ft 173kts
16-Jul-23 18:26 32.634783 -111.518177 304 6415ft 173kts
16-Jul-23 18:27 32.663694 -111.562938 305 6462ft 171kts
16-Jul-23 18:28 32.692728 -111.607932 304 6436ft 172kts
16-Jul-23 18:29 32.721775 -111.653011 305 6451ft 172kts
16-Jul-23 18:30 32.750953 -111.698329 304 6464ft 172kts
16-Jul-23 18:31 32.780077 -111.743673 304 6475ft 173kts
16-Jul-23 18:32 32.809506 -111.789519 304 6488ft 176kts
16-Jul-23 18:33 32.839137 -111.835712 303 6492ft 175kts
16-Jul-23 18:34 32.868753 -111.881973 303 6498ft 176kts
16-Jul-23 18:35 32.908360 -111.912806 348 6496ft 182kts
16-Jul-23 18:36 32.958119 -111.922204 348 6496ft 180kts
16-Jul-23 18:37 33.008006 -111.931513 348 6475ft 183kts
16-Jul-23 18:38 33.058397 -111.940938 349 6463ft 182kts
16-Jul-23 18:39 33.108317 -111.950286 350 6432ft 181kts
16-Jul-23 18:40 33.158382 -111.959672 349 6435ft 181kts
16-Jul-23 18:41 33.152258 -111.990010 214 5713ft 135kts
16-Jul-23 18:42 33.111428 -111.985648 134 3733ft 172kts
16-Jul-23 18:43 33.120255 -111.946513 324 2620ft 119kts
16-Jul-23 18:44 33.148790 -111.957635 342 2346ft 108kts
16-Jul-23 18:45 33.180340 -111.963910 345 2043ft 135kts
16-Jul-23 18:46 33.222589 -111.971702 346 2042ft 161kts
16-Jul-23 18:47 33.265608 -111.979811 345 2094ft 154kts
16-Jul-23 18:48 33.306935 -111.987650 346 2674ft 155kts
16-Jul-23 18:49 33.346154 -111.994850 344 2664ft 111kts
16-Jul-23 18:50 33.377474 -112.000946 344 2683ft 123kts
16-Jul-23 18:51 33.406891 -111.988577 75 2298ft 132kts
16-Jul-23 18:52 33.409098 -111.944736 133 2470ft 130kts
16-Jul-23 18:53 33.393945 -111.961530 267 2523ft 108kts
16-Jul-23 18:54 33.413250 -111.969850 16 2108ft 111kts
16-Jul-23 18:55 33.427142 -111.986621 284 1480ft 76kts
16-Jul-23 18:56 33.428836 -112.008986 271 1125ft 44kts
16-Jul-23 18:57 33.427752 -112.017079 262 1125ft 19kts
16-Jul-23 18:58 33.427762 -112.020563 272 1123ft 18kts
16-Jul-23 18:59 33.426096 -112.021149 183 1125ft 0kts

Navigation Log

Ident Type
Flight plan parsing failed, navigation log unavailable